Time;durP1;ratioP1;P1;durP2;ratioP2;P2;SDS_P1;SDS_P2;PMS_P1;PMS_P2;Temp;Humidity;BMP_temperature;BMP_pressure;BME280_temperature;BME280_humidity;BME280_pressure;Samples;Min_cycle;Max_cycle;Signal;HPM_P1;HPM_P2
2021/12/30 00:03:53;;;;;;;2.47;1.70;;;;;;;4.78;100.00;95929.53;10541571;28;20190;-76
2021/12/30 00:08:54;;;;;;;1.17;1.10;;;;;;;4.87;100.00;95933.06;10542231;28;20198;-76
2021/12/30 00:13:55;;;;;;;2.10;1.20;;;;;;;4.92;100.00;95935.25;10523412;28;20195;-76
2021/12/30 00:18:55;;;;;;;1.23;1.00;;;;;;;4.87;100.00;95943.44;10523244;28;20579;-76
2021/12/30 00:23:55;;;;;;;1.20;1.10;;;;;;;4.85;100.00;95947.94;10541614;28;20193;-76
2021/12/30 00:28:56;;;;;;;1.90;1.40;;;;;;;4.82;100.00;95936.09;10522994;28;20215;-77
2021/12/30 00:33:57;;;;;;;1.93;1.53;;;;;;;4.73;100.00;95938.69;10522978;28;20194;-77
2021/12/30 00:38:57;;;;;;;1.80;1.53;;;;;;;4.55;100.00;95942.00;10520985;28;20627;-78
2021/12/30 00:43:57;;;;;;;1.60;1.50;;;;;;;4.62;100.00;95948.28;10522451;28;20195;-78
2021/12/30 00:48:58;;;;;;;1.50;1.40;;;;;;;4.62;100.00;95947.44;10539970;28;20189;-78
2021/12/30 00:53:58;;;;;;;1.80;1.30;;;;;;;4.58;100.00;95946.91;10539814;28;20245;-77
2021/12/30 00:58:58;;;;;;;1.87;1.47;;;;;;;4.67;100.00;95952.22;10539485;28;20305;-77
2021/12/30 01:03:59;;;;;;;1.20;1.10;;;;;;;4.81;100.00;95941.41;10538884;28;20220;-77
2021/12/30 01:08:59;;;;;;;1.57;1.10;;;;;;;4.94;100.00;95948.88;10539861;28;20187;-77
2021/12/30 01:14:13;;;;;;;1.37;1.20;;;;;;;5.03;100.00;95952.44;10520916;28;20546;-76
2021/12/30 01:19:22;;;;;;;1.83;1.10;;;;;;;5.11;100.00;95973.31;10538627;28;20214;-76
2021/12/30 01:24:23;;;;;;;0.80;0.80;;;;;;;5.48;100.00;95977.69;10538937;28;20207;-76
2021/12/30 01:29:24;;;;;;;2.13;0.63;;;;;;;5.61;100.00;95980.78;10538418;28;20214;-76
2021/12/30 01:34:27;;;;;;;1.13;0.70;;;;;;;5.78;100.00;95970.59;10537882;28;20348;-76
2021/12/30 01:39:28;;;;;;;2.07;0.60;;;;;;;5.84;100.00;95970.81;10537794;28;20237;-76
2021/12/30 01:44:29;;;;;;;0.50;0.50;;;;;;;5.80;100.00;95972.06;10520152;28;20202;-77
2021/12/30 01:49:29;;;;;;;0.90;0.63;;;;;;;5.87;100.00;95980.13;10536956;28;20187;-77
2021/12/30 01:54:29;;;;;;;0.70;0.70;;;;;;;5.84;100.00;95986.41;10519500;28;20252;-77
2021/12/30 01:59:30;;;;;;;2.10;0.60;;;;;;;5.88;100.00;95990.38;10536597;28;20210;-77
2021/12/30 02:04:30;;;;;;;0.60;0.60;;;;;;;5.95;100.00;96005.38;10537166;28;20590;-77
2021/12/30 02:09:31;;;;;;;0.60;0.60;;;;;;;6.05;100.00;96012.19;10537139;28;20619;-77
2021/12/30 02:14:33;;;;;;;0.53;0.53;;;;;;;6.12;100.00;96022.81;10538312;28;20269;-77
2021/12/30 02:19:34;;;;;;;0.60;0.60;;;;;;;6.32;100.00;96030.50;10537373;28;20219;-77
2021/12/30 02:24:36;;;;;;;0.50;0.50;;;;;;;6.37;100.00;96026.50;10536033;28;20191;-78
2021/12/30 02:29:37;;;;;;;0.43;0.43;;;;;;;6.52;100.00;96026.78;10518443;28;20199;-77
2021/12/30 02:34:38;;;;;;;0.50;0.50;;;;;;;6.53;100.00;96022.44;10535482;28;20191;-76
2021/12/30 02:39:39;;;;;;;0.70;0.70;;;;;;;6.61;100.00;96027.69;10535914;28;20257;-77
2021/12/30 02:44:40;;;;;;;2.70;0.70;;;;;;;6.64;100.00;96029.19;10535550;28;20210;-76
2021/12/30 02:49:41;;;;;;;0.83;0.83;;;;;;;6.67;100.00;96040.13;10535525;28;20273;-77
2021/12/30 02:54:42;;;;;;;0.90;0.90;;;;;;;6.77;100.00;96048.69;10517612;28;20224;-77
2021/12/30 02:59:43;;;;;;;0.70;0.70;;;;;;;6.78;100.00;96072.91;10537478;28;20210;-78
2021/12/30 03:04:43;;;;;;;0.80;0.80;;;;;;;6.84;100.00;96067.13;10544458;28;20192;-78
2021/12/30 03:09:46;;;;;;;0.60;0.60;;;;;;;6.89;100.00;96080.53;10543923;28;20182;-78
2021/12/30 03:14:47;;;;;;;0.60;0.60;;;;;;;6.91;100.00;96094.19;10543344;28;20668;-77
2021/12/30 03:19:47;;;;;;;0.60;0.60;;;;;;;7.00;100.00;96110.72;10543229;28;20229;-77
2021/12/30 03:24:47;;;;;;;0.77;0.70;;;;;;;7.05;100.00;96111.09;10543435;28;20187;-77
2021/12/30 03:29:48;;;;;;;0.90;0.90;;;;;;;7.13;100.00;96112.94;10543122;28;20194;-77
2021/12/30 03:34:48;;;;;;;1.73;1.63;;;;;;;7.22;100.00;96122.47;10542355;28;20401;-77
2021/12/30 03:39:49;;;;;;;2.67;2.47;;;;;;;7.23;100.00;96139.75;10543277;28;20222;-76
2021/12/30 03:44:49;;;;;;;3.80;3.50;;;;;;;7.32;100.00;96149.25;10541592;28;20684;-77
2021/12/30 03:49:49;;;;;;;4.70;4.30;;;;;;;7.38;100.00;96166.09;10542645;28;20277;-77
2021/12/30 03:54:50;;;;;;;9.77;5.80;;;;;;;7.41;100.00;96167.56;10523943;28;20182;-76
2021/12/30 03:59:51;;;;;;;9.20;5.73;;;;;;;7.44;100.00;96168.09;10541293;28;20233;-76
2021/12/30 04:04:51;;;;;;;8.37;5.37;;;;;;;7.47;100.00;96177.38;10537275;28;20331;-76
2021/12/30 04:09:51;;;;;;;7.07;5.60;;;;;;;7.55;100.00;96189.66;10535274;28;20194;-76
2021/12/30 04:14:52;;;;;;;7.50;5.10;;;;;;;7.59;100.00;96177.97;10534676;28;20187;-76
2021/12/30 04:19:52;;;;;;;7.80;5.30;;;;;;;7.55;100.00;96200.91;10515716;28;20210;-76
2021/12/30 04:24:53;;;;;;;9.70;4.80;;;;;;;7.67;100.00;96202.31;10534048;28;20252;-76
2021/12/30 04:29:53;;;;;;;11.03;5.90;;;;;;;7.56;100.00;96206.94;10533293;28;20190;-76
2021/12/30 04:34:53;;;;;;;7.13;5.50;;;;;;;7.68;100.00;96197.91;10533802;28;20238;-76
2021/12/30 04:39:54;;;;;;;14.97;6.30;;;;;;;7.73;100.00;96200.06;10533002;28;20661;-76
2021/12/30 04:44:54;;;;;;;13.00;6.20;;;;;;;7.74;100.00;96209.53;10533098;28;20205;-76
2021/12/30 04:49:57;;;;;;;18.43;8.70;;;;;;;7.74;100.00;96233.00;10532925;28;20200;-76
2021/12/30 04:54:58;;;;;;;13.03;8.13;;;;;;;7.68;100.00;96239.63;10532263;28;20669;-76
2021/12/30 04:59:58;;;;;;;14.43;8.27;;;;;;;7.76;100.00;96229.25;10532065;28;20237;-76
2021/12/30 05:04:58;;;;;;;10.07;6.83;;;;;;;7.82;100.00;96239.09;10539157;28;20193;-76
2021/12/30 05:09:59;;;;;;;14.17;7.40;;;;;;;7.83;100.00;96242.53;10520489;28;20260;-76
2021/12/30 05:14:59;;;;;;;11.63;7.13;;;;;;;7.94;100.00;96268.38;10539175;28;20199;-76
2021/12/30 05:20:00;;;;;;;13.30;6.90;;;;;;;7.95;100.00;96279.63;10538767;28;20697;-76
2021/12/30 05:25:00;;;;;;;12.97;7.40;;;;;;;7.89;100.00;96285.41;10537659;28;20551;-76
2021/12/30 05:30:03;;;;;;;9.80;7.17;;;;;;;7.91;100.00;96288.72;10538374;28;20248;-76
2021/12/30 05:35:05;;;;;;;10.07;6.73;;;;;;;7.98;100.00;96287.16;10537750;28;20234;-76
2021/12/30 05:40:09;;;;;;;13.77;6.60;;;;;;;8.08;100.00;96300.09;10537830;28;20210;-76
2021/12/30 05:45:10;;;;;;;12.80;6.10;;;;;;;8.05;100.00;96306.44;10537342;28;20201;-76
2021/12/30 05:50:11;;;;;;;9.73;5.97;;;;;;;8.14;100.00;96305.53;10537712;28;20540;-76
2021/12/30 05:55:13;;;;;;;15.27;6.20;;;;;;;8.08;100.00;96315.75;10537243;28;20187;-76
2021/12/30 06:00:16;;;;;;;14.43;5.80;;;;;;;8.13;100.00;96321.34;10536509;28;20218;-76
2021/12/30 06:05:17;;;;;;;11.90;5.40;;;;;;;8.07;100.00;96324.53;10537488;28;20194;-77
2021/12/30 06:10:18;;;;;;;10.73;5.17;;;;;;;8.04;100.00;96338.72;10518310;28;20179;-76
2021/12/30 06:15:18;;;;;;;8.33;4.43;;;;;;;8.09;100.00;96313.00;10518808;28;20214;-76
2021/12/30 06:20:18;;;;;;;13.27;4.87;;;;;;;8.03;100.00;96313.59;10536550;28;20295;-76
2021/12/30 06:25:19;;;;;;;16.70;6.73;;;;;;;8.00;100.00;96316.50;10517649;28;20222;-76
2021/12/30 06:30:19;;;;;;;11.90;5.77;;;;;;;8.10;100.00;96314.66;10518456;28;20214;-75
2021/12/30 06:35:20;;;;;;;17.43;6.20;;;;;;;8.12;100.00;96328.34;10534339;28;20236;-76
2021/12/30 06:40:20;;;;;;;10.67;6.20;;;;;;;8.06;100.00;96336.78;10536313;28;20316;-76
2021/12/30 06:45:21;;;;;;;9.70;5.40;;;;;;;8.12;100.00;96323.13;10517724;28;20463;-76
2021/12/30 06:50:24;;;;;;;10.60;5.47;;;;;;;8.09;100.00;96344.31;10517614;28;20183;-75
2021/12/30 06:55:25;;;;;;;9.33;4.83;;;;;;;8.11;100.00;96347.56;10535837;28;20194;-76
2021/12/30 07:00:25;;;;;;;12.07;5.50;;;;;;;8.05;100.00;96353.38;10534735;28;20221;-76
2021/12/30 07:05:25;;;;;;;13.50;5.40;;;;;;;8.13;100.00;96356.09;10535473;28;20201;-75
2021/12/30 07:10:26;;;;;;;9.33;5.43;;;;;;;7.96;100.00;96354.28;10517426;28;20204;-76
2021/12/30 07:15:27;;;;;;;12.67;5.43;;;;;;;7.86;100.00;96360.41;10535616;28;20184;-76
2021/12/30 07:20:27;;;;;;;12.57;5.23;;;;;;;7.75;100.00;96368.44;10516768;28;20232;-76
2021/12/30 07:25:28;;;;;;;9.00;5.00;;;;;;;7.73;100.00;96374.75;10535285;28;20198;-76
2021/12/30 07:30:28;;;;;;;12.77;5.30;;;;;;;7.64;100.00;96387.72;10535022;28;20209;-76
2021/12/30 07:35:29;;;;;;;10.47;5.23;;;;;;;7.49;100.00;96402.22;10534596;28;20226;-76
2021/12/30 07:40:30;;;;;;;7.50;4.73;;;;;;;7.53;100.00;96397.53;10535732;28;20218;-76
2021/12/30 07:45:30;;;;;;;17.77;7.67;;;;;;;7.42;100.00;96396.72;10502181;28;20190;-76
2021/12/30 07:50:31;;;;;;;9.20;5.20;;;;;;;7.61;100.00;96402.81;10541816;28;20185;-77
2021/12/30 07:55:31;;;;;;;15.53;5.03;;;;;;;7.64;100.00;96411.19;10542429;28;20186;-76
2021/12/30 08:00:31;;;;;;;14.73;7.00;;;;;;;7.82;100.00;96403.38;10523119;28;20229;-76
2021/12/30 08:05:32;;;;;;;30.00;11.17;;;;;;;7.93;100.00;96404.97;10515666;28;20252;-76
2021/12/30 08:10:32;;;;;;;44.23;16.60;;;;;;;8.05;100.00;96408.16;10522041;28;20617;-77
2021/12/30 08:15:32;;;;;;;40.63;16.30;;;;;;;8.11;100.00;96402.34;10539166;28;20194;-76
2021/12/30 08:20:33;;;;;;;31.43;11.60;;;;;;;8.26;100.00;96412.28;10538105;28;20214;-76
2021/12/30 08:25:33;;;;;;;22.17;8.43;;;;;;;8.25;100.00;96405.44;10521630;28;20256;-76
2021/12/30 08:30:34;;;;;;;18.07;8.53;;;;;;;8.29;100.00;96398.94;10537236;28;20191;-77
2021/12/30 08:35:34;;;;;;;46.60;19.03;;;;;;;8.29;100.00;96385.91;10520441;28;20234;-77
2021/12/30 08:40:34;;;;;;;12.53;5.93;;;;;;;8.44;100.00;96371.38;10530517;28;20214;-77
2021/12/30 08:45:36;;;;;;;38.13;16.07;;;;;;;8.46;100.00;96387.69;10524345;28;20216;-77
2021/12/30 08:50:37;;;;;;;10.27;5.43;;;;;;;8.51;100.00;96411.53;10514398;28;20171;-78
2021/12/30 08:55:37;;;;;;;20.77;9.67;;;;;;;8.59;100.00;96415.19;10512636;28;20187;-77
2021/12/30 09:00:41;;;;;;;20.07;9.67;;;;;;;8.65;100.00;96414.59;10526430;28;20229;-77
2021/12/30 09:05:42;;;;;;;19.13;4.97;;;;;;;8.56;100.00;96416.34;10537685;28;20274;-77
2021/12/30 09:10:45;;;;;;;12.47;4.10;;;;;;;8.41;100.00;96421.22;10537811;28;20646;-77
2021/12/30 09:15:46;;;;;;;13.37;5.73;;;;;;;8.42;100.00;96401.97;10537428;28;20195;-77
2021/12/30 09:20:46;;;;;;;15.20;4.37;;;;;;;8.42;100.00;96388.13;10536820;28;20215;-77
2021/12/30 09:25:47;;;;;;;25.20;8.50;;;;;;;8.39;100.00;96391.84;10519667;28;20254;-77
2021/12/30 09:30:47;;;;;;;12.87;4.73;;;;;;;8.51;100.00;96398.50;10537896;28;20662;-78
2021/12/30 09:35:48;;;;;;;28.23;11.57;;;;;;;8.66;100.00;96400.56;10536153;28;20810;-77
2021/12/30 09:40:48;;;;;;;12.70;3.33;;;;;;;8.78;100.00;96420.25;10536054;28;20600;-77
2021/12/30 09:45:50;;;;;;;13.23;2.87;;;;;;;8.84;100.00;96417.03;10536128;28;20767;-77
2021/12/30 09:50:52;;;;;;;27.57;9.60;;;;;;;9.20;100.00;96435.19;10535664;28;20214;-77
2021/12/30 09:55:59;;;;;;;10.47;3.17;;;;;;;9.38;100.00;96439.56;10535357;28;20186;-77
2021/12/30 10:01:00;;;;;;;13.87;5.47;;;;;;;9.22;100.00;96446.34;10535731;28;20309;-76
2021/12/30 10:06:10;;;;;;;8.67;2.60;;;;;;;9.20;100.00;96440.41;10516675;28;20202;-77
2021/12/30 10:11:14;;;;;;;7.77;2.73;;;;;;;9.36;100.00;96424.03;10535261;28;20265;-77
2021/12/30 10:16:16;;;;;;;6.93;2.23;;;;;;;9.36;100.00;96436.28;10534689;28;20195;-78
2021/12/30 10:21:45;;;;;;;8.40;2.53;;;;;;;9.43;100.00;96408.53;10535491;28;20281;-77
2021/12/30 10:26:49;;;;;;;7.97;2.07;;;;;;;9.55;100.00;96406.47;10497310;28;20207;-77
2021/12/30 10:31:50;;;;;;;3.10;1.80;;;;;;;9.59;100.00;96402.56;10475785;28;20241;-77
2021/12/30 10:36:51;;;;;;;2.50;1.20;;;;;;;9.69;100.00;96412.88;10481485;28;20691;-77
2021/12/30 10:41:53;;;;;;;2.93;1.67;;;;;;;9.71;100.00;96411.75;10534350;28;20216;-78
2021/12/30 10:46:54;;;;;;;4.83;1.70;;;;;;;9.73;100.00;96390.66;10498987;28;20305;-77
2021/12/30 10:51:57;;;;;;;4.60;1.50;;;;;;;9.76;100.00;96391.16;10534006;28;20198;-77
2021/12/30 10:56:59;;;;;;;3.27;1.30;;;;;;;9.92;100.00;96393.00;10515351;28;20309;-77
2021/12/30 11:02:12;;;;;;;2.50;1.50;;;;;;;9.94;100.00;96388.44;10533475;28;20699;-78
2021/12/30 11:07:15;;;;;;;4.43;1.47;;;;;;;10.18;100.00;96390.28;10515826;28;20337;-77
2021/12/30 11:12:16;;;;;;;6.07;1.37;;;;;;;10.28;100.00;96402.38;10497819;28;20194;-78
2021/12/30 11:17:28;;;;;;;3.03;1.43;;;;;;;10.37;100.00;96398.00;10514935;28;20222;-78
2021/12/30 11:22:31;;;;;;;5.10;1.50;;;;;;;10.43;100.00;96385.09;10539576;28;20194;-77
2021/12/30 11:27:32;;;;;;;2.57;1.23;;;;;;;10.47;100.00;96386.38;10521712;28;20573;-77
2021/12/30 11:32:34;;;;;;;2.83;1.63;;;;;;;10.48;100.00;96405.53;10541116;28;20195;-77
2021/12/30 11:37:35;;;;;;;5.63;1.60;;;;;;;10.51;100.00;96405.22;10540901;28;20313;-77
2021/12/30 11:42:38;;;;;;;4.33;1.43;;;;;;;10.51;100.00;96390.31;10539805;28;20198;-78
2021/12/30 11:47:40;;;;;;;5.73;1.20;;;;;;;10.55;100.00;96392.59;10540534;28;20316;-78
2021/12/30 11:53:02;;;;;;;9.13;3.93;;;;;;;10.50;100.00;96393.09;10522098;28;20182;-77
2021/12/30 11:58:40;;;;;;;9.60;6.03;;;;;;;10.40;100.00;96400.28;10540181;28;20210;-78
2021/12/30 12:03:44;;;;;;;3.40;1.30;;;;;;;10.26;100.00;96399.94;10522225;28;20195;-78
2021/12/30 12:08:46;;;;;;;4.93;1.80;;;;;;;10.17;100.00;96396.47;10539616;28;20257;-79
2021/12/30 12:13:47;;;;;;;1.37;1.00;;;;;;;10.18;100.00;96405.13;10521477;28;20190;-78
2021/12/30 12:19:08;;;;;;;4.40;2.77;;;;;;;10.17;100.00;96412.19;10539350;28;20306;-78
2021/12/30 12:24:20;;;;;;;3.53;2.50;;;;;;;10.17;100.00;96398.28;10504190;28;20648;-78
2021/12/30 12:29:21;;;;;;;2.10;1.90;;;;;;;10.17;100.00;96398.28;10540041;28;20186;-78
2021/12/30 12:34:33;;;;;;;2.50;1.33;;;;;;;10.24;100.00;96404.50;10537271;28;20190;-78
2021/12/30 12:39:35;;;;;;;1.53;1.07;;;;;;;10.24;100.00;96403.69;10519915;28;20222;-79
2021/12/30 12:44:35;;;;;;;1.10;1.00;;;;;;;10.35;100.00;96401.59;10538082;28;20662;-79
2021/12/30 12:49:36;;;;;;;1.23;1.03;;;;;;;10.26;100.00;96407.78;10538515;28;20191;-80
2021/12/30 12:54:38;;;;;;;1.40;1.30;;;;;;;10.18;100.00;96420.84;10536858;28;20248;-79
2021/12/30 12:59:39;;;;;;;3.50;1.10;;;;;;;10.11;100.00;96425.09;10538384;28;20226;-79
2021/12/30 13:04:40;;;;;;;1.63;1.30;;;;;;;10.21;100.00;96410.06;10537323;28;20199;-79
2021/12/30 13:09:45;;;;;;;1.97;1.00;;;;;;;10.28;100.00;96418.09;10537043;28;20182;-78
2021/12/30 13:14:46;;;;;;;1.00;1.00;;;;;;;10.30;100.00;96413.50;10537264;28;20668;-78
2021/12/30 13:19:48;;;;;;;1.60;1.10;;;;;;;10.24;100.00;96404.50;10536094;28;20240;-78
2021/12/30 13:24:50;;;;;;;3.43;2.37;;;;;;;10.40;100.00;96410.75;10536344;28;20202;-79
2021/12/30 13:29:54;;;;;;;2.23;1.60;;;;;;;10.48;100.00;96402.91;10532302;28;20187;-78
2021/12/30 13:34:59;;;;;;;4.23;1.43;;;;;;;10.59;100.00;96394.72;10487818;28;20611;-78
2021/12/30 13:40:00;;;;;;;1.17;0.80;;;;;;;10.70;100.00;96393.56;10517065;28;20714;-78
2021/12/30 13:45:02;;;;;;;1.70;1.10;;;;;;;10.71;100.00;96405.69;10534725;28;20206;-78
2021/12/30 13:50:10;;;;;;;1.60;1.00;;;;;;;10.79;100.00;96402.25;10533650;28;20187;-78
2021/12/30 13:55:12;;;;;;;0.77;0.77;;;;;;;10.85;100.00;96414.69;10534952;28;20245;-78
2021/12/30 14:00:16;;;;;;;1.10;1.00;;;;;;;10.90;100.00;96415.00;10534664;28;20214;-77
2021/12/30 14:05:16;;;;;;;2.60;2.40;;;;;;;10.87;100.00;96404.84;10536045;28;20197;-77
2021/12/30 14:10:17;;;;;;;1.60;0.97;;;;;;;11.03;100.00;96407.44;10534319;28;20262;-77
2021/12/30 14:15:19;;;;;;;1.50;1.20;;;;;;;11.04;100.00;96409.09;10517342;28;20597;-77
2021/12/30 14:20:19;;;;;;;0.80;0.80;;;;;;;11.12;100.00;96413.50;10535065;28;20206;-77
2021/12/30 14:25:26;;;;;;;2.20;0.90;;;;;;;11.21;100.00;96412.50;10515467;28;20201;-77
2021/12/30 14:30:31;;;;;;;0.70;0.70;;;;;;;11.28;100.00;96401.34;10516040;28;20209;-77
2021/12/30 14:35:32;;;;;;;0.70;0.70;;;;;;;11.41;100.00;96412.94;10534552;28;20284;-77
2021/12/30 14:40:32;;;;;;;0.60;0.60;;;;;;;11.48;100.00;96430.63;10533917;28;20257;-77
2021/12/30 14:45:42;;;;;;;0.77;0.77;;;;;;;11.42;100.00;96430.31;10533445;28;20217;-77
2021/12/30 14:50:43;;;;;;;1.00;0.90;;;;;;;11.45;100.00;96433.56;10516937;28;20186;-77
2021/12/30 14:55:44;;;;;;;0.60;0.60;;;;;;;11.51;100.00;96438.16;10531064;28;20271;-78
2021/12/30 15:00:47;;;;;;;0.70;0.60;;;;;;;11.52;100.00;96455.53;10515478;28;20248;-77
2021/12/30 15:05:47;;;;;;;1.67;1.57;;;;;;;11.52;100.00;96458.16;10533774;28;20190;-77
2021/12/30 15:10:48;;;;;;;2.53;1.07;;;;;;;11.57;100.00;96456.63;10533326;28;20222;-78
2021/12/30 15:15:48;;;;;;;0.80;0.80;;;;;;;11.56;100.00;96464.69;10533245;28;20551;-77
2021/12/30 15:20:49;;;;;;;0.63;0.63;;;;;;;11.64;100.00;96467.31;10532471;28;20431;-76
2021/12/30 15:25:50;;;;;;;0.50;0.50;;;;;;;11.78;100.00;96476.28;10533379;28;20197;-77
2021/12/30 15:30:51;;;;;;;0.93;0.63;;;;;;;11.63;100.00;96477.97;10514382;28;20253;-77
2021/12/30 15:35:52;;;;;;;0.50;0.50;;;;;;;11.65;100.00;96478.59;10513821;28;20651;-77
2021/12/30 15:40:53;;;;;;;1.08;1.08;;;;;;;11.75;100.00;96474.78;10533172;28;20298;-77
2021/12/30 15:45:53;;;;;;;0.70;0.70;;;;;;;11.74;100.00;96473.16;10530674;28;20645;-78
2021/12/30 15:50:54;;;;;;;0.60;0.60;;;;;;;11.86;100.00;96478.03;10532062;28;20226;-78
2021/12/30 15:55:55;;;;;;;1.60;1.50;;;;;;;11.77;100.00;96485.94;10532538;28;20189;-78
2021/12/30 16:00:55;;;;;;;0.60;0.60;;;;;;;11.78;100.00;96487.56;10531449;28;20222;-78
2021/12/30 16:05:56;;;;;;;0.77;0.70;;;;;;;11.77;100.00;96483.31;10520533;28;20270;-78
2021/12/30 16:10:56;;;;;;;0.82;0.60;;;;;;;11.75;100.00;96484.47;10518480;28;20215;-78
2021/12/30 16:15:57;;;;;;;0.63;0.63;;;;;;;11.63;100.00;96483.22;10514077;28;20190;-78
2021/12/30 16:20:57;;;;;;;0.93;0.70;;;;;;;11.51;100.00;96490.63;10515793;28;20190;-78
2021/12/30 16:25:58;;;;;;;0.70;0.70;;;;;;;11.38;100.00;96491.94;10515107;28;20273;-78
2021/12/30 16:30:58;;;;;;;0.75;0.75;;;;;;;11.24;100.00;96501.31;10511643;28;20207;-78
2021/12/30 16:35:59;;;;;;;0.70;0.70;;;;;;;11.28;100.00;96498.38;10484260;28;20238;-79
2021/12/30 16:40:59;;;;;;;0.60;0.60;;;;;;;11.38;100.00;96506.88;10454251;28;20211;-78
2021/12/30 16:46:00;;;;;;;1.00;0.90;;;;;;;11.43;100.00;96517.69;10454210;28;20188;-78
2021/12/30 16:51:01;;;;;;;0.60;0.60;;;;;;;11.44;100.00;96511.47;10436832;28;20635;-78
2021/12/30 16:56:02;;;;;;;0.82;0.60;;;;;;;11.51;100.00;96522.09;10489708;28;20195;-78
2021/12/30 17:01:04;;;;;;;0.60;0.60;;;;;;;11.47;100.00;96515.53;10494525;28;20603;-78
2021/12/30 17:06:04;;;;;;;0.97;0.87;;;;;;;11.50;100.00;96525.69;10477998;28;20203;-79
2021/12/30 17:11:04;;;;;;;0.77;0.77;;;;;;;11.53;100.00;96523.56;10495215;28;20576;-79
2021/12/30 17:16:05;;;;;;;1.80;1.70;;;;;;;11.59;100.00;96532.56;10489906;28;20197;-79
2021/12/30 17:21:05;;;;;;;0.90;0.90;;;;;;;11.50;100.00;96523.06;10493889;28;20667;-79
2021/12/30 17:26:06;;;;;;;0.77;0.77;;;;;;;11.52;100.00;96542.09;10497043;28;20198;-79
2021/12/30 17:31:06;;;;;;;0.70;0.70;;;;;;;11.47;100.00;96542.59;10496738;28;20211;-79
2021/12/30 17:36:07;;;;;;;0.70;0.70;;;;;;;11.45;100.00;96547.19;10509912;28;20292;-79
2021/12/30 17:41:07;;;;;;;0.77;0.77;;;;;;;11.46;100.00;96561.94;10538373;28;20201;-79
2021/12/30 17:46:08;;;;;;;0.70;0.70;;;;;;;11.43;100.00;96557.84;10537881;28;20198;-79
2021/12/30 17:51:08;;;;;;;5.03;0.93;;;;;;;11.38;100.00;96568.00;10538539;28;20317;-79
2021/12/30 17:56:08;;;;;;;0.70;0.70;;;;;;;11.30;100.00;96557.53;10537980;28;20648;-79
2021/12/30 18:01:09;;;;;;;1.33;0.80;;;;;;;11.15;100.00;96559.16;10537173;28;20190;-79
2021/12/30 18:06:12;;;;;;;1.17;1.07;;;;;;;11.09;100.00;96555.41;10537623;28;20186;-78
2021/12/30 18:11:13;;;;;;;1.70;1.20;;;;;;;11.03;100.00;96569.97;10536810;28;20210;-79
2021/12/30 18:16:14;;;;;;;1.80;1.10;;;;;;;10.99;100.00;96573.91;10512513;28;20191;-79
2021/12/30 18:21:15;;;;;;;1.07;1.00;;;;;;;11.07;100.00;96581.78;10509904;28;20643;-78
2021/12/30 18:26:15;;;;;;;1.10;1.00;;;;;;;11.06;100.00;96577.50;10496302;28;20457;-78
2021/12/30 18:31:17;;;;;;;3.53;1.00;;;;;;;11.03;100.00;96582.28;10507542;28;20226;-78
2021/12/30 18:36:17;;;;;;;0.93;0.87;;;;;;;11.15;100.00;96572.25;10492528;28;20677;-78
2021/12/30 18:41:18;;;;;;;1.13;1.00;;;;;;;11.13;100.00;96585.53;10453016;28;20184;-78
2021/12/30 18:46:18;;;;;;;1.73;1.00;;;;;;;11.14;100.00;96592.44;10468652;28;20262;-79
2021/12/30 18:51:18;;;;;;;2.83;1.00;;;;;;;11.20;100.00;96598.84;10471092;28;20211;-78
2021/12/30 18:56:19;;;;;;;1.40;1.30;;;;;;;11.19;100.00;96598.03;10481256;28;20213;-79
2021/12/30 19:01:20;;;;;;;1.80;0.97;;;;;;;11.28;100.00;96592.78;10493277;28;20199;-78
2021/12/30 19:06:20;;;;;;;1.70;0.83;;;;;;;11.33;100.00;96599.16;10472354;28;20179;-79
2021/12/30 19:11:21;;;;;;;0.93;0.93;;;;;;;11.34;100.00;96611.28;10435496;28;20219;-79
2021/12/30 19:16:21;;;;;;;0.70;0.70;;;;;;;11.38;100.00;96594.25;10450777;28;20604;-78
2021/12/30 19:21:22;;;;;;;0.80;0.80;;;;;;;11.35;100.00;96610.31;10451671;28;20186;-78
2021/12/30 19:26:22;;;;;;;1.00;0.85;;;;;;;11.32;100.00;96617.69;10466644;28;20188;-79
2021/12/30 19:31:23;;;;;;;1.73;1.00;;;;;;;11.31;100.00;96622.09;10457603;28;20687;-79
2021/12/30 19:36:23;;;;;;;0.90;0.90;;;;;;;11.29;100.00;96629.31;10506796;28;20258;-79
2021/12/30 19:41:24;;;;;;;3.90;1.00;;;;;;;11.29;100.00;96631.94;10516683;28;20198;-79
2021/12/30 19:46:31;;;;;;;0.80;0.80;;;;;;;11.35;100.00;96633.09;10507615;28;20187;-79
2021/12/30 19:51:32;;;;;;;1.35;0.90;;;;;;;11.34;100.00;96652.44;10538507;28;20731;-79
2021/12/30 19:56:32;;;;;;;0.97;0.87;;;;;;;11.43;100.00;96646.22;10540726;28;20233;-79
2021/12/30 20:01:34;;;;;;;1.00;1.00;;;;;;;11.40;100.00;96646.53;10541529;28;20191;-79
2021/12/30 20:06:34;;;;;;;0.83;0.83;;;;;;;11.40;100.00;96660.47;10522455;28;20641;-79
2021/12/30 20:11:35;;;;;;;0.82;0.80;;;;;;;11.35;100.00;96654.91;10541033;28;20229;-79
2021/12/30 20:16:41;;;;;;;3.53;1.17;;;;;;;11.32;100.00;96652.59;10521370;28;20193;-79
2021/12/30 20:21:42;;;;;;;1.55;1.10;;;;;;;11.37;100.00;96647.69;10540547;28;20194;-79
2021/12/30 20:26:42;;;;;;;1.70;1.10;;;;;;;11.31;100.00;96665.88;10539412;28;20328;-79
2021/12/30 20:31:45;;;;;;;1.10;1.00;;;;;;;11.35;100.00;96680.31;10539902;28;20561;-78
2021/12/30 20:36:46;;;;;;;1.00;1.00;;;;;;;11.31;100.00;96674.56;10539565;28;20653;-79
2021/12/30 20:41:47;;;;;;;3.28;1.73;;;;;;;11.33;100.00;96664.75;10539445;28;20186;-79
2021/12/30 20:46:47;;;;;;;1.83;1.70;;;;;;;11.29;100.00;96670.47;10539542;28;20242;-79
2021/12/30 20:51:48;;;;;;;2.50;1.50;;;;;;;11.21;100.00;96672.09;10504792;28;20188;-79
2021/12/30 20:56:48;;;;;;;0.80;0.80;;;;;;;11.25;100.00;96683.06;10515296;28;20277;-79
2021/12/30 21:01:50;;;;;;;1.60;1.50;;;;;;;11.29;100.00;96676.53;10490867;28;20182;-79
2021/12/30 21:06:53;;;;;;;1.45;1.00;;;;;;;11.30;100.00;96682.59;10512533;28;20232;-79
2021/12/30 21:11:54;;;;;;;1.15;1.00;;;;;;;11.28;100.00;96690.59;10538718;28;20183;-78
2021/12/30 21:16:54;;;;;;;0.80;0.80;;;;;;;11.21;100.00;96694.88;10537458;28;20244;-79
2021/12/30 21:21:55;;;;;;;2.17;1.02;;;;;;;11.22;100.00;96713.06;10537315;28;20194;-79
2021/12/30 21:26:56;;;;;;;1.33;0.70;;;;;;;11.26;100.00;96705.69;10538053;28;20197;-78
2021/12/30 21:31:56;;;;;;;3.00;0.98;;;;;;;11.28;100.00;96710.78;10537330;28;20656;-79
2021/12/30 21:36:56;;;;;;;3.43;2.10;;;;;;;11.26;100.00;96723.25;10537496;28;20678;-78
2021/12/30 21:41:57;;;;;;;2.47;1.00;;;;;;;11.21;100.00;96736.84;10536911;28;20543;-78
2021/12/30 21:46:58;;;;;;;1.10;0.90;;;;;;;11.07;100.00;96735.63;10535708;28;20221;-78
2021/12/30 21:51:59;;;;;;;1.70;0.83;;;;;;;10.83;100.00;96734.56;10535882;28;20186;-78
2021/12/30 21:57:01;;;;;;;1.10;1.00;;;;;;;10.47;100.00;96736.50;10536392;28;20689;-79
2021/12/30 22:02:02;;;;;;;0.83;0.83;;;;;;;10.24;100.00;96736.16;10537047;28;20202;-78
2021/12/30 22:07:02;;;;;;;1.20;1.10;;;;;;;10.29;100.00;96734.75;10534886;28;20187;-79
2021/12/30 22:12:03;;;;;;;1.40;1.00;;;;;;;10.31;100.00;96731.97;10536409;28;20179;-78
2021/12/30 22:17:04;;;;;;;1.33;1.03;;;;;;;10.34;100.00;96732.50;10535848;28;20178;-78
2021/12/30 22:22:05;;;;;;;1.00;0.90;;;;;;;10.38;100.00;96729.56;10535378;28;20202;-78
2021/12/30 22:27:06;;;;;;;0.97;0.93;;;;;;;10.28;100.00;96735.72;10535254;28;20300;-78
2021/12/30 22:32:07;;;;;;;0.93;0.93;;;;;;;10.24;100.00;96751.88;10535632;28;20275;-78
2021/12/30 22:37:07;;;;;;;1.30;1.07;;;;;;;10.24;100.00;96749.25;10534764;28;20337;-78
2021/12/30 22:42:07;;;;;;;1.87;1.10;;;;;;;10.21;100.00;96749.56;10534820;28;20186;-78
2021/12/30 22:47:08;;;;;;;1.03;1.00;;;;;;;10.17;100.00;96752.50;10516358;28;20270;-78
2021/12/30 22:52:09;;;;;;;1.63;1.13;;;;;;;10.12;100.00;96754.75;10532601;28;20261;-79
2021/12/30 22:57:10;;;;;;;1.10;1.00;;;;;;;10.09;100.00;96762.91;10533148;28;20186;-78
2021/12/30 23:02:10;;;;;;;2.20;1.20;;;;;;;10.11;100.00;96754.91;10532984;28;20622;-79
2021/12/30 23:07:11;;;;;;;4.13;1.20;;;;;;;10.26;100.00;96763.00;10535069;28;20214;-78
2021/12/30 23:12:13;;;;;;;1.20;1.10;;;;;;;10.19;100.00;96765.44;10517317;28;20531;-79